sensor_id;sensor_type;location;lat;lon;timestamp;P1;durP1;ratioP1;P2;durP2;ratioP2
37201;SDS011;37799;52.390;6.136;2023-03-01T00:02:04;8.00;;;1.40;;
37201;SDS011;37799;52.390;6.136;2023-03-01T00:04:29;7.97;;;2.33;;
37201;SDS011;37799;52.390;6.136;2023-03-01T00:06:55;8.18;;;2.10;;
37201;SDS011;37799;52.390;6.136;2023-03-01T00:09:21;6.90;;;1.90;;
37201;SDS011;37799;52.390;6.136;2023-03-01T00:11:46;10.60;;;2.33;;
37201;SDS011;37799;52.390;6.136;2023-03-01T00:14:13;8.45;;;2.15;;
37201;SDS011;37799;52.390;6.136;2023-03-01T00:16:41;7.75;;;2.28;;
37201;SDS011;37799;52.390;6.136;2023-03-01T00:19:08;6.68;;;1.75;;
37201;SDS011;37799;52.390;6.136;2023-03-01T00:21:36;9.10;;;2.10;;
37201;SDS011;37799;52.390;6.136;2023-03-01T00:24:02;7.15;;;2.45;;
37201;SDS011;37799;52.390;6.136;2023-03-01T00:26:28;8.95;;;1.98;;
37201;SDS011;37799;52.390;6.136;2023-03-01T00:28:54;6.57;;;1.98;;
37201;SDS011;37799;52.390;6.136;2023-03-01T00:31:23;9.30;;;2.33;;
37201;SDS011;37799;52.390;6.136;2023-03-01T00:33:54;5.47;;;1.88;;
37201;SDS011;37799;52.390;6.136;2023-03-01T00:36:22;7.53;;;1.63;;
37201;SDS011;37799;52.390;6.136;2023-03-01T00:38:50;5.70;;;1.30;;
37201;SDS011;37799;52.390;6.136;2023-03-01T00:41:16;5.28;;;1.98;;
37201;SDS011;37799;52.390;6.136;2023-03-01T00:43:43;5.47;;;1.52;;
37201;SDS011;37799;52.390;6.136;2023-03-01T00:46:10;7.75;;;2.40;;
37201;SDS011;37799;52.390;6.136;2023-03-01T00:48:41;6.60;;;1.80;;
37201;SDS011;37799;52.390;6.136;2023-03-01T00:51:15;6.30;;;1.73;;
37201;SDS011;37799;52.390;6.136;2023-03-01T00:53:43;7.72;;;1.77;;
37201;SDS011;37799;52.390;6.136;2023-03-01T00:56:10;7.82;;;2.08;;
37201;SDS011;37799;52.390;6.136;2023-03-01T00:58:36;6.57;;;1.83;;
37201;SDS011;37799;52.390;6.136;2023-03-01T01:01:09;7.40;;;2.10;;
37201;SDS011;37799;52.390;6.136;2023-03-01T01:03:42;7.22;;;1.45;;
37201;SDS011;37799;52.390;6.136;2023-03-01T01:06:21;5.85;;;1.33;;
37201;SDS011;37799;52.390;6.136;2023-03-01T01:11:14;5.10;;;1.65;;
37201;SDS011;37799;52.390;6.136;2023-03-01T01:13:40;6.07;;;1.80;;
37201;SDS011;37799;52.390;6.136;2023-03-01T01:16:05;5.55;;;1.73;;
37201;SDS011;37799;52.390;6.136;2023-03-01T01:18:31;5.88;;;1.52;;
37201;SDS011;37799;52.390;6.136;2023-03-01T01:20:56;6.38;;;1.85;;
37201;SDS011;37799;52.390;6.136;2023-03-01T01:23:22;9.77;;;2.10;;
37201;SDS011;37799;52.390;6.136;2023-03-01T01:25:47;7.30;;;2.15;;
37201;SDS011;37799;52.390;6.136;2023-03-01T01:28:12;6.50;;;1.50;;
37201;SDS011;37799;52.390;6.136;2023-03-01T01:30:38;8.40;;;2.80;;
37201;SDS011;37799;52.390;6.136;2023-03-01T01:33:03;8.48;;;2.10;;
37201;SDS011;37799;52.390;6.136;2023-03-01T01:35:28;6.90;;;1.88;;
37201;SDS011;37799;52.390;6.136;2023-03-01T01:37:54;6.68;;;2.10;;
37201;SDS011;37799;52.390;6.136;2023-03-01T01:40:19;6.30;;;1.75;;
37201;SDS011;37799;52.390;6.136;2023-03-01T01:42:44;7.10;;;2.50;;
37201;SDS011;37799;52.390;6.136;2023-03-01T01:45:24;7.78;;;2.25;;
37201;SDS011;37799;52.390;6.136;2023-03-01T01:47:53;10.05;;;2.13;;
37201;SDS011;37799;52.390;6.136;2023-03-01T01:50:22;7.68;;;2.22;;
37201;SDS011;37799;52.390;6.136;2023-03-01T01:52:48;5.53;;;1.80;;
37201;SDS011;37799;52.390;6.136;2023-03-01T01:55:19;7.28;;;1.98;;
37201;SDS011;37799;52.390;6.136;2023-03-01T01:57:52;8.20;;;2.95;;
37201;SDS011;37799;52.390;6.136;2023-03-01T02:00:23;6.53;;;1.67;;
37201;SDS011;37799;52.390;6.136;2023-03-01T02:02:59;7.00;;;2.25;;
37201;SDS011;37799;52.390;6.136;2023-03-01T02:08:16;7.40;;;2.10;;
37201;SDS011;37799;52.390;6.136;2023-03-01T02:10:44;9.00;;;2.03;;
37201;SDS011;37799;52.390;6.136;2023-03-01T02:13:10;8.13;;;1.92;;
37201;SDS011;37799;52.390;6.136;2023-03-01T02:15:37;6.68;;;1.70;;
37201;SDS011;37799;52.390;6.136;2023-03-01T02:18:04;6.63;;;1.85;;
37201;SDS011;37799;52.390;6.136;2023-03-01T02:23:40;8.57;;;1.90;;
37201;SDS011;37799;52.390;6.136;2023-03-01T02:26:10;7.97;;;1.92;;
37201;SDS011;37799;52.390;6.136;2023-03-01T02:28:58;5.90;;;1.80;;
37201;SDS011;37799;52.390;6.136;2023-03-01T02:31:23;6.10;;;1.90;;
37201;SDS011;37799;52.390;6.136;2023-03-01T02:34:14;6.57;;;1.55;;
37201;SDS011;37799;52.390;6.136;2023-03-01T02:36:46;9.07;;;2.40;;
37201;SDS011;37799;52.390;6.136;2023-03-01T02:39:15;5.75;;;1.95;;
37201;SDS011;37799;52.390;6.136;2023-03-01T02:41:47;7.30;;;2.13;;
37201;SDS011;37799;52.390;6.136;2023-03-01T02:44:15;9.68;;;2.30;;
37201;SDS011;37799;52.390;6.136;2023-03-01T02:46:41;9.52;;;2.38;;
37201;SDS011;37799;52.390;6.136;2023-03-01T02:49:20;7.70;;;1.85;;
37201;SDS011;37799;52.390;6.136;2023-03-01T02:54:27;6.93;;;1.95;;
37201;SDS011;37799;52.390;6.136;2023-03-01T02:56:53;8.60;;;2.60;;
37201;SDS011;37799;52.390;6.136;2023-03-01T02:59:20;8.10;;;2.45;;
37201;SDS011;37799;52.390;6.136;2023-03-01T03:01:47;8.70;;;2.33;;
37201;SDS011;37799;52.390;6.136;2023-03-01T03:04:14;7.75;;;1.77;;
37201;SDS011;37799;52.390;6.136;2023-03-01T03:06:45;8.20;;;2.03;;
37201;SDS011;37799;52.390;6.136;2023-03-01T03:09:12;8.50;;;2.03;;
37201;SDS011;37799;52.390;6.136;2023-03-01T03:11:39;8.32;;;2.63;;
37201;SDS011;37799;52.390;6.136;2023-03-01T03:14:06;9.95;;;2.45;;
37201;SDS011;37799;52.390;6.136;2023-03-01T03:16:37;7.38;;;2.17;;
37201;SDS011;37799;52.390;6.136;2023-03-01T03:19:04;9.10;;;2.92;;
37201;SDS011;37799;52.390;6.136;2023-03-01T03:21:30;8.07;;;2.13;;
37201;SDS011;37799;52.390;6.136;2023-03-01T03:23:56;7.10;;;1.95;;
37201;SDS011;37799;52.390;6.136;2023-03-01T03:26:22;7.60;;;1.83;;
37201;SDS011;37799;52.390;6.136;2023-03-01T03:28:47;13.73;;;3.38;;
37201;SDS011;37799;52.390;6.136;2023-03-01T03:31:13;9.05;;;2.78;;
37201;SDS011;37799;52.390;6.136;2023-03-01T03:33:38;8.55;;;2.47;;
37201;SDS011;37799;52.390;6.136;2023-03-01T03:36:04;8.93;;;2.50;;
37201;SDS011;37799;52.390;6.136;2023-03-01T03:38:29;10.95;;;2.28;;
37201;SDS011;37799;52.390;6.136;2023-03-01T03:41:02;10.80;;;2.95;;
37201;SDS011;37799;52.390;6.136;2023-03-01T03:43:30;7.95;;;2.53;;
37201;SDS011;37799;52.390;6.136;2023-03-01T03:45:57;8.88;;;2.70;;
37201;SDS011;37799;52.390;6.136;2023-03-01T03:48:23;8.98;;;2.80;;
37201;SDS011;37799;52.390;6.136;2023-03-01T03:50:50;7.95;;;2.17;;
37201;SDS011;37799;52.390;6.136;2023-03-01T03:55:46;12.82;;;2.35;;
37201;SDS011;37799;52.390;6.136;2023-03-01T03:58:14;12.25;;;2.03;;
37201;SDS011;37799;52.390;6.136;2023-03-01T04:00:41;7.78;;;2.35;;
37201;SDS011;37799;52.390;6.136;2023-03-01T04:03:09;10.93;;;2.72;;
37201;SDS011;37799;52.390;6.136;2023-03-01T04:05:35;11.27;;;2.80;;
37201;SDS011;37799;52.390;6.136;2023-03-01T04:08:01;8.38;;;2.70;;
37201;SDS011;37799;52.390;6.136;2023-03-01T04:10:28;8.27;;;2.88;;
37201;SDS011;37799;52.390;6.136;2023-03-01T04:12:55;12.75;;;2.33;;
37201;SDS011;37799;52.390;6.136;2023-03-01T04:15:21;15.20;;;3.03;;
37201;SDS011;37799;52.390;6.136;2023-03-01T04:17:48;11.75;;;3.22;;
37201;SDS011;37799;52.390;6.136;2023-03-01T04:20:16;10.93;;;2.75;;
37201;SDS011;37799;52.390;6.136;2023-03-01T04:23:00;11.77;;;3.60;;
37201;SDS011;37799;52.390;6.136;2023-03-01T04:25:38;10.73;;;2.40;;
37201;SDS011;37799;52.390;6.136;2023-03-01T04:28:05;8.60;;;2.53;;
37201;SDS011;37799;52.390;6.136;2023-03-01T04:30:31;13.57;;;3.13;;
37201;SDS011;37799;52.390;6.136;2023-03-01T04:33:00;11.25;;;2.22;;
37201;SDS011;37799;52.390;6.136;2023-03-01T04:35:27;11.73;;;2.97;;
37201;SDS011;37799;52.390;6.136;2023-03-01T04:37:55;10.98;;;2.67;;
37201;SDS011;37799;52.390;6.136;2023-03-01T04:40:20;8.18;;;2.92;;
37201;SDS011;37799;52.390;6.136;2023-03-01T04:42:46;10.45;;;2.95;;
37201;SDS011;37799;52.390;6.136;2023-03-01T04:45:12;7.90;;;2.28;;
37201;SDS011;37799;52.390;6.136;2023-03-01T04:47:40;12.57;;;3.53;;
37201;SDS011;37799;52.390;6.136;2023-03-01T04:50:07;11.13;;;3.22;;
37201;SDS011;37799;52.390;6.136;2023-03-01T04:52:34;8.30;;;2.50;;
37201;SDS011;37799;52.390;6.136;2023-03-01T04:55:00;8.15;;;3.22;;
37201;SDS011;37799;52.390;6.136;2023-03-01T04:57:26;10.70;;;3.13;;
37201;SDS011;37799;52.390;6.136;2023-03-01T04:59:51;10.75;;;2.85;;
37201;SDS011;37799;52.390;6.136;2023-03-01T05:02:17;11.57;;;3.60;;
37201;SDS011;37799;52.390;6.136;2023-03-01T05:04:42;9.98;;;2.55;;
37201;SDS011;37799;52.390;6.136;2023-03-01T05:07:07;9.88;;;2.35;;
37201;SDS011;37799;52.390;6.136;2023-03-01T05:09:33;7.55;;;2.22;;
37201;SDS011;37799;52.390;6.136;2023-03-01T05:11:58;10.00;;;2.50;;
37201;SDS011;37799;52.390;6.136;2023-03-01T05:14:23;8.13;;;2.38;;
37201;SDS011;37799;52.390;6.136;2023-03-01T05:16:49;8.40;;;2.55;;
37201;SDS011;37799;52.390;6.136;2023-03-01T05:19:14;14.77;;;3.17;;
37201;SDS011;37799;52.390;6.136;2023-03-01T05:21:47;9.48;;;2.50;;
37201;SDS011;37799;52.390;6.136;2023-03-01T05:24:29;10.05;;;2.90;;
37201;SDS011;37799;52.390;6.136;2023-03-01T05:26:56;9.90;;;2.80;;
37201;SDS011;37799;52.390;6.136;2023-03-01T05:29:23;10.45;;;2.85;;
37201;SDS011;37799;52.390;6.136;2023-03-01T05:32:08;10.02;;;2.17;;
37201;SDS011;37799;52.390;6.136;2023-03-01T05:34:35;9.50;;;2.30;;
37201;SDS011;37799;52.390;6.136;2023-03-01T05:37:01;13.95;;;2.42;;
37201;SDS011;37799;52.390;6.136;2023-03-01T05:39:27;10.80;;;2.63;;
37201;SDS011;37799;52.390;6.136;2023-03-01T05:41:54;10.38;;;2.85;;
37201;SDS011;37799;52.390;6.136;2023-03-01T05:44:21;7.95;;;2.20;;
37201;SDS011;37799;52.390;6.136;2023-03-01T05:46:46;9.25;;;3.20;;
37201;SDS011;37799;52.390;6.136;2023-03-01T05:49:12;6.72;;;2.33;;
37201;SDS011;37799;52.390;6.136;2023-03-01T05:51:39;8.18;;;2.30;;
37201;SDS011;37799;52.390;6.136;2023-03-01T05:54:05;8.90;;;2.10;;
37201;SDS011;37799;52.390;6.136;2023-03-01T05:56:33;6.68;;;2.10;;
37201;SDS011;37799;52.390;6.136;2023-03-01T05:59:00;10.65;;;2.47;;
37201;SDS011;37799;52.390;6.136;2023-03-01T06:01:25;10.85;;;2.65;;
37201;SDS011;37799;52.390;6.136;2023-03-01T06:03:51;8.35;;;2.78;;
37201;SDS011;37799;52.390;6.136;2023-03-01T06:06:16;8.60;;;2.47;;
37201;SDS011;37799;52.390;6.136;2023-03-01T06:08:41;8.68;;;2.58;;
37201;SDS011;37799;52.390;6.136;2023-03-01T06:11:07;8.90;;;2.63;;
37201;SDS011;37799;52.390;6.136;2023-03-01T06:13:32;11.50;;;2.75;;
37201;SDS011;37799;52.390;6.136;2023-03-01T06:15:58;8.95;;;2.53;;
37201;SDS011;37799;52.390;6.136;2023-03-01T06:18:23;7.97;;;2.55;;
37201;SDS011;37799;52.390;6.136;2023-03-01T06:20:52;7.55;;;2.45;;
37201;SDS011;37799;52.390;6.136;2023-03-01T06:23:18;8.38;;;2.95;;
37201;SDS011;37799;52.390;6.136;2023-03-01T06:25:43;9.02;;;3.20;;
37201;SDS011;37799;52.390;6.136;2023-03-01T06:28:09;7.95;;;2.40;;
37201;SDS011;37799;52.390;6.136;2023-03-01T06:30:34;10.77;;;3.03;;
37201;SDS011;37799;52.390;6.136;2023-03-01T06:33:00;8.77;;;2.60;;
37201;SDS011;37799;52.390;6.136;2023-03-01T06:35:31;7.80;;;2.42;;
37201;SDS011;37799;52.390;6.136;2023-03-01T06:37:57;8.65;;;2.78;;
37201;SDS011;37799;52.390;6.136;2023-03-01T06:40:23;7.65;;;2.25;;
37201;SDS011;37799;52.390;6.136;2023-03-01T06:42:50;10.95;;;2.53;;
37201;SDS011;37799;52.390;6.136;2023-03-01T06:45:16;7.97;;;2.10;;
37201;SDS011;37799;52.390;6.136;2023-03-01T06:47:43;6.57;;;2.22;;
37201;SDS011;37799;52.390;6.136;2023-03-01T06:50:08;9.02;;;2.65;;
37201;SDS011;37799;52.390;6.136;2023-03-01T06:52:34;8.77;;;2.47;;
37201;SDS011;37799;52.390;6.136;2023-03-01T06:54:59;9.52;;;2.65;;
37201;SDS011;37799;52.390;6.136;2023-03-01T06:57:25;10.00;;;2.72;;
37201;SDS011;37799;52.390;6.136;2023-03-01T06:59:50;9.98;;;2.45;;
37201;SDS011;37799;52.390;6.136;2023-03-01T07:02:16;8.63;;;2.67;;
37201;SDS011;37799;52.390;6.136;2023-03-01T07:04:41;7.68;;;2.35;;
37201;SDS011;37799;52.390;6.136;2023-03-01T07:07:07;8.27;;;2.50;;
37201;SDS011;37799;52.390;6.136;2023-03-01T07:09:33;8.00;;;2.50;;
37201;SDS011;37799;52.390;6.136;2023-03-01T07:11:58;8.23;;;2.58;;
37201;SDS011;37799;52.390;6.136;2023-03-01T07:14:23;8.10;;;2.22;;
37201;SDS011;37799;52.390;6.136;2023-03-01T07:16:50;6.40;;;2.45;;
37201;SDS011;37799;52.390;6.136;2023-03-01T07:19:16;8.15;;;2.08;;
37201;SDS011;37799;52.390;6.136;2023-03-01T07:21:41;8.23;;;2.10;;
37201;SDS011;37799;52.390;6.136;2023-03-01T07:24:07;6.60;;;2.08;;
37201;SDS011;37799;52.390;6.136;2023-03-01T07:26:32;8.73;;;2.13;;
37201;SDS011;37799;52.390;6.136;2023-03-01T07:28:59;9.35;;;2.63;;
37201;SDS011;37799;52.390;6.136;2023-03-01T07:31:25;7.78;;;2.42;;
37201;SDS011;37799;52.390;6.136;2023-03-01T07:33:53;10.82;;;3.22;;
37201;SDS011;37799;52.390;6.136;2023-03-01T07:36:18;10.40;;;3.45;;
37201;SDS011;37799;52.390;6.136;2023-03-01T07:38:44;13.30;;;4.13;;
37201;SDS011;37799;52.390;6.136;2023-03-01T07:41:09;10.15;;;3.10;;
37201;SDS011;37799;52.390;6.136;2023-03-01T07:43:34;11.65;;;3.33;;
37201;SDS011;37799;52.390;6.136;2023-03-01T07:46:00;14.13;;;3.22;;
37201;SDS011;37799;52.390;6.136;2023-03-01T07:48:26;11.50;;;3.97;;
37201;SDS011;37799;52.390;6.136;2023-03-01T07:50:52;15.27;;;4.75;;
37201;SDS011;37799;52.390;6.136;2023-03-01T07:53:17;17.33;;;5.30;;
37201;SDS011;37799;52.390;6.136;2023-03-01T07:55:43;17.27;;;5.18;;
37201;SDS011;37799;52.390;6.136;2023-03-01T07:58:08;18.30;;;6.28;;
37201;SDS011;37799;52.390;6.136;2023-03-01T08:00:33;13.05;;;4.38;;
37201;SDS011;37799;52.390;6.136;2023-03-01T08:02:59;17.58;;;6.65;;
37201;SDS011;37799;52.390;6.136;2023-03-01T08:05:25;18.30;;;5.90;;
37201;SDS011;37799;52.390;6.136;2023-03-01T08:07:51;16.45;;;5.35;;
37201;SDS011;37799;52.390;6.136;2023-03-01T08:10:17;17.73;;;6.57;;
37201;SDS011;37799;52.390;6.136;2023-03-01T08:12:42;17.95;;;6.93;;
37201;SDS011;37799;52.390;6.136;2023-03-01T08:15:08;21.20;;;7.10;;
37201;SDS011;37799;52.390;6.136;2023-03-01T08:17:33;19.80;;;6.18;;
37201;SDS011;37799;52.390;6.136;2023-03-01T08:19:59;18.65;;;7.68;;
37201;SDS011;37799;52.390;6.136;2023-03-01T08:22:24;22.60;;;7.35;;
37201;SDS011;37799;52.390;6.136;2023-03-01T08:24:49;18.85;;;6.65;;
37201;SDS011;37799;52.390;6.136;2023-03-01T08:27:15;17.73;;;7.10;;
37201;SDS011;37799;52.390;6.136;2023-03-01T08:29:41;12.60;;;5.45;;
37201;SDS011;37799;52.390;6.136;2023-03-01T08:32:06;11.63;;;4.15;;
37201;SDS011;37799;52.390;6.136;2023-03-01T08:34:32;10.98;;;3.90;;
37201;SDS011;37799;52.390;6.136;2023-03-01T08:37:00;9.50;;;2.90;;
37201;SDS011;37799;52.390;6.136;2023-03-01T08:39:25;9.60;;;3.13;;
37201;SDS011;37799;52.390;6.136;2023-03-01T08:41:51;8.23;;;3.00;;
37201;SDS011;37799;52.390;6.136;2023-03-01T08:44:16;9.35;;;2.65;;
37201;SDS011;37799;52.390;6.136;2023-03-01T08:46:42;7.95;;;2.88;;
37201;SDS011;37799;52.390;6.136;2023-03-01T08:49:08;10.52;;;2.28;;
37201;SDS011;37799;52.390;6.136;2023-03-01T08:51:41;8.35;;;3.00;;
37201;SDS011;37799;52.390;6.136;2023-03-01T08:54:15;8.43;;;2.30;;
37201;SDS011;37799;52.390;6.136;2023-03-01T08:56:42;9.52;;;2.85;;
37201;SDS011;37799;52.390;6.136;2023-03-01T08:59:09;8.48;;;2.58;;
37201;SDS011;37799;52.390;6.136;2023-03-01T09:01:35;7.25;;;2.00;;
37201;SDS011;37799;52.390;6.136;2023-03-01T09:04:02;6.88;;;2.20;;
37201;SDS011;37799;52.390;6.136;2023-03-01T09:06:29;7.72;;;2.33;;
37201;SDS011;37799;52.390;6.136;2023-03-01T09:08:56;7.57;;;2.38;;
37201;SDS011;37799;52.390;6.136;2023-03-01T09:11:21;7.70;;;2.10;;
37201;SDS011;37799;52.390;6.136;2023-03-01T09:13:47;7.10;;;2.70;;
37201;SDS011;37799;52.390;6.136;2023-03-01T09:16:14;7.15;;;2.40;;
37201;SDS011;37799;52.390;6.136;2023-03-01T09:18:42;6.90;;;2.00;;
37201;SDS011;37799;52.390;6.136;2023-03-01T09:21:09;5.75;;;1.75;;
37201;SDS011;37799;52.390;6.136;2023-03-01T09:23:40;7.00;;;1.95;;
37201;SDS011;37799;52.390;6.136;2023-03-01T09:26:07;7.00;;;1.83;;
37201;SDS011;37799;52.390;6.136;2023-03-01T09:28:34;6.00;;;1.55;;
37201;SDS011;37799;52.390;6.136;2023-03-01T09:31:00;4.65;;;1.40;;
37201;SDS011;37799;52.390;6.136;2023-03-01T09:33:27;5.20;;;1.50;;
37201;SDS011;37799;52.390;6.136;2023-03-01T09:36:00;4.85;;;1.45;;
37201;SDS011;37799;52.390;6.136;2023-03-01T09:38:27;6.93;;;1.90;;
37201;SDS011;37799;52.390;6.136;2023-03-01T09:40:53;7.63;;;1.67;;
37201;SDS011;37799;52.390;6.136;2023-03-01T09:46:11;4.75;;;1.17;;
37201;SDS011;37799;52.390;6.136;2023-03-01T09:48:42;4.50;;;1.02;;
37201;SDS011;37799;52.390;6.136;2023-03-01T09:51:15;3.92;;;1.10;;
37201;SDS011;37799;52.390;6.136;2023-03-01T09:53:44;4.05;;;0.80;;
37201;SDS011;37799;52.390;6.136;2023-03-01T10:02:01;4.10;;;0.93;;
37201;SDS011;37799;52.390;6.136;2023-03-01T10:04:50;5.07;;;1.10;;
37201;SDS011;37799;52.390;6.136;2023-03-01T10:07:32;4.03;;;0.90;;
37201;SDS011;37799;52.390;6.136;2023-03-01T10:10:16;4.45;;;1.08;;
37201;SDS011;37799;52.390;6.136;2023-03-01T10:12:53;6.35;;;1.30;;
37201;SDS011;37799;52.390;6.136;2023-03-01T10:15:34;4.60;;;0.95;;
37201;SDS011;37799;52.390;6.136;2023-03-01T10:18:06;4.47;;;1.15;;
37201;SDS011;37799;52.390;6.136;2023-03-01T10:20:43;4.97;;;1.17;;
37201;SDS011;37799;52.390;6.136;2023-03-01T10:23:15;2.88;;;0.80;;
37201;SDS011;37799;52.390;6.136;2023-03-01T10:25:50;3.85;;;0.45;;
37201;SDS011;37799;52.390;6.136;2023-03-01T10:31:04;4.60;;;0.97;;
37201;SDS011;37799;52.390;6.136;2023-03-01T10:33:37;4.22;;;1.08;;
37201;SDS011;37799;52.390;6.136;2023-03-01T10:36:04;3.72;;;1.00;;
37201;SDS011;37799;52.390;6.136;2023-03-01T10:38:31;3.17;;;0.70;;
37201;SDS011;37799;52.390;6.136;2023-03-01T10:41:12;2.60;;;0.40;;
37201;SDS011;37799;52.390;6.136;2023-03-01T10:43:48;3.65;;;0.82;;
37201;SDS011;37799;52.390;6.136;2023-03-01T10:46:26;2.83;;;0.60;;
37201;SDS011;37799;52.390;6.136;2023-03-01T10:51:41;2.28;;;0.65;;
37201;SDS011;37799;52.390;6.136;2023-03-01T10:54:16;3.38;;;0.70;;
37201;SDS011;37799;52.390;6.136;2023-03-01T10:56:49;4.55;;;0.70;;
37201;SDS011;37799;52.390;6.136;2023-03-01T10:59:51;2.95;;;0.55;;
37201;SDS011;37799;52.390;6.136;2023-03-01T11:04:58;3.03;;;0.60;;
37201;SDS011;37799;52.390;6.136;2023-03-01T11:07:25;4.50;;;0.90;;
37201;SDS011;37799;52.390;6.136;2023-03-01T11:09:51;2.42;;;0.60;;
37201;SDS011;37799;52.390;6.136;2023-03-01T11:12:16;5.00;;;0.60;;
37201;SDS011;37799;52.390;6.136;2023-03-01T11:14:49;4.45;;;0.80;;
37201;SDS011;37799;52.390;6.136;2023-03-01T11:17:18;3.92;;;0.88;;
37201;SDS011;37799;52.390;6.136;2023-03-01T11:22:29;5.53;;;0.70;;
37201;SDS011;37799;52.390;6.136;2023-03-01T11:24:59;5.20;;;0.80;;
37201;SDS011;37799;52.390;6.136;2023-03-01T11:27:29;2.40;;;0.43;;
37201;SDS011;37799;52.390;6.136;2023-03-01T11:32:46;2.28;;;0.52;;
37201;SDS011;37799;52.390;6.136;2023-03-01T11:35:20;3.53;;;0.80;;
37201;SDS011;37799;52.390;6.136;2023-03-01T11:40:51;5.28;;;0.82;;
37201;SDS011;37799;52.390;6.136;2023-03-01T11:43:28;3.13;;;0.68;;
37201;SDS011;37799;52.390;6.136;2023-03-01T11:56:57;3.13;;;0.88;;
37201;SDS011;37799;52.390;6.136;2023-03-01T11:59:36;3.25;;;0.70;;
37201;SDS011;37799;52.390;6.136;2023-03-01T12:02:11;3.85;;;0.60;;
37201;SDS011;37799;52.390;6.136;2023-03-01T12:21:42;3.85;;;0.70;;
37201;SDS011;37799;52.390;6.136;2023-03-01T12:32:38;3.50;;;0.77;;
37201;SDS011;37799;52.390;6.136;2023-03-01T12:43:34;2.85;;;0.68;;
37201;SDS011;37799;52.390;6.136;2023-03-01T12:46:12;3.53;;;0.77;;
37201;SDS011;37799;52.390;6.136;2023-03-01T12:48:46;5.28;;;0.82;;
37201;SDS011;37799;52.390;6.136;2023-03-01T12:51:31;4.03;;;0.93;;
37201;SDS011;37799;52.390;6.136;2023-03-01T12:53:59;2.92;;;0.70;;
37201;SDS011;37799;52.390;6.136;2023-03-01T12:56:34;3.10;;;0.60;;
37201;SDS011;37799;52.390;6.136;2023-03-01T13:01:49;4.05;;;0.73;;
37201;SDS011;37799;52.390;6.136;2023-03-01T13:07:30;2.67;;;0.52;;
37201;SDS011;37799;52.390;6.136;2023-03-01T13:15:24;4.07;;;0.60;;
37201;SDS011;37799;52.390;6.136;2023-03-01T13:20:50;4.03;;;0.68;;
37201;SDS011;37799;52.390;6.136;2023-03-01T13:26:06;2.50;;;0.50;;
37201;SDS011;37799;52.390;6.136;2023-03-01T13:31:10;3.80;;;1.13;;
37201;SDS011;37799;52.390;6.136;2023-03-01T13:33:40;4.40;;;0.85;;
37201;SDS011;37799;52.390;6.136;2023-03-01T13:36:08;2.45;;;0.60;;
37201;SDS011;37799;52.390;6.136;2023-03-01T13:41:02;3.77;;;0.87;;
37201;SDS011;37799;52.390;6.136;2023-03-01T13:43:31;3.85;;;1.00;;
37201;SDS011;37799;52.390;6.136;2023-03-01T13:45:59;4.05;;;0.73;;
37201;SDS011;37799;52.390;6.136;2023-03-01T13:48:27;4.18;;;1.00;;
37201;SDS011;37799;52.390;6.136;2023-03-01T13:51:28;4.65;;;0.98;;
37201;SDS011;37799;52.390;6.136;2023-03-01T13:53:53;5.18;;;1.25;;
37201;SDS011;37799;52.390;6.136;2023-03-01T13:56:33;4.55;;;0.90;;
37201;SDS011;37799;52.390;6.136;2023-03-01T13:59:21;3.05;;;0.60;;
37201;SDS011;37799;52.390;6.136;2023-03-01T14:01:54;3.15;;;0.63;;
37201;SDS011;37799;52.390;6.136;2023-03-01T14:04:25;4.55;;;0.88;;
37201;SDS011;37799;52.390;6.136;2023-03-01T14:07:08;5.10;;;0.73;;
37201;SDS011;37799;52.390;6.136;2023-03-01T14:09:48;3.50;;;0.73;;
37201;SDS011;37799;52.390;6.136;2023-03-01T14:12:23;4.63;;;0.90;;
37201;SDS011;37799;52.390;6.136;2023-03-01T14:15:26;3.83;;;0.77;;
37201;SDS011;37799;52.390;6.136;2023-03-01T14:17:52;2.95;;;0.70;;
37201;SDS011;37799;52.390;6.136;2023-03-01T14:20:38;4.95;;;0.60;;
37201;SDS011;37799;52.390;6.136;2023-03-01T14:23:10;2.65;;;0.65;;
37201;SDS011;37799;52.390;6.136;2023-03-01T14:25:37;2.60;;;0.63;;
37201;SDS011;37799;52.390;6.136;2023-03-01T14:28:14;4.38;;;0.90;;
37201;SDS011;37799;52.390;6.136;2023-03-01T14:30:47;4.45;;;0.85;;
37201;SDS011;37799;52.390;6.136;2023-03-01T14:33:31;2.55;;;0.60;;
37201;SDS011;37799;52.390;6.136;2023-03-01T14:36:10;2.83;;;0.95;;
37201;SDS011;37799;52.390;6.136;2023-03-01T14:38:41;3.50;;;0.57;;
37201;SDS011;37799;52.390;6.136;2023-03-01T14:41:12;5.43;;;0.60;;
37201;SDS011;37799;52.390;6.136;2023-03-01T14:43:44;3.85;;;0.75;;
37201;SDS011;37799;52.390;6.136;2023-03-01T14:46:23;3.00;;;0.50;;
37201;SDS011;37799;52.390;6.136;2023-03-01T14:51:50;2.40;;;0.60;;
37201;SDS011;37799;52.390;6.136;2023-03-01T14:54:20;3.38;;;0.60;;
37201;SDS011;37799;52.390;6.136;2023-03-01T14:56:48;2.87;;;0.53;;
37201;SDS011;37799;52.390;6.136;2023-03-01T14:59:15;4.15;;;0.77;;
37201;SDS011;37799;52.390;6.136;2023-03-01T15:01:41;3.25;;;0.68;;
37201;SDS011;37799;52.390;6.136;2023-03-01T15:04:08;5.32;;;1.33;;
37201;SDS011;37799;52.390;6.136;2023-03-01T15:06:37;2.60;;;0.63;;
37201;SDS011;37799;52.390;6.136;2023-03-01T15:09:03;4.47;;;0.60;;
37201;SDS011;37799;52.390;6.136;2023-03-01T15:11:30;2.58;;;0.45;;
37201;SDS011;37799;52.390;6.136;2023-03-01T15:13:57;3.08;;;0.65;;
37201;SDS011;37799;52.390;6.136;2023-03-01T15:16:25;3.33;;;0.70;;
37201;SDS011;37799;52.390;6.136;2023-03-01T15:18:54;4.43;;;0.82;;
37201;SDS011;37799;52.390;6.136;2023-03-01T15:23:51;2.92;;;0.60;;
37201;SDS011;37799;52.390;6.136;2023-03-01T15:26:53;3.42;;;0.60;;
37201;SDS011;37799;52.390;6.136;2023-03-01T15:29:31;3.17;;;0.70;;
37201;SDS011;37799;52.390;6.136;2023-03-01T15:31:59;3.92;;;0.88;;
37201;SDS011;37799;52.390;6.136;2023-03-01T15:34:32;6.43;;;0.90;;
37201;SDS011;37799;52.390;6.136;2023-03-01T15:37:01;3.22;;;0.70;;
37201;SDS011;37799;52.390;6.136;2023-03-01T15:42:08;5.13;;;1.42;;
37201;SDS011;37799;52.390;6.136;2023-03-01T15:44:36;7.22;;;1.70;;
37201;SDS011;37799;52.390;6.136;2023-03-01T15:47:25;5.13;;;1.17;;
37201;SDS011;37799;52.390;6.136;2023-03-01T15:49:54;7.60;;;1.63;;
37201;SDS011;37799;52.390;6.136;2023-03-01T15:52:24;7.32;;;1.98;;
37201;SDS011;37799;52.390;6.136;2023-03-01T15:54:55;50.83;;;13.02;;
37201;SDS011;37799;52.390;6.136;2023-03-01T15:57:22;20.85;;;6.20;;
37201;SDS011;37799;52.390;6.136;2023-03-01T15:59:47;7.60;;;2.22;;
37201;SDS011;37799;52.390;6.136;2023-03-01T16:02:12;14.27;;;3.50;;
37201;SDS011;37799;52.390;6.136;2023-03-01T16:04:38;18.67;;;6.13;;
37201;SDS011;37799;52.390;6.136;2023-03-01T16:07:04;16.88;;;5.05;;
37201;SDS011;37799;52.390;6.136;2023-03-01T16:09:30;16.80;;;5.35;;
37201;SDS011;37799;52.390;6.136;2023-03-01T16:11:56;5.22;;;1.77;;
37201;SDS011;37799;52.390;6.136;2023-03-01T16:14:21;10.52;;;3.20;;
37201;SDS011;37799;52.390;6.136;2023-03-01T16:16:47;6.80;;;1.77;;
37201;SDS011;37799;52.390;6.136;2023-03-01T16:19:15;5.47;;;1.40;;
37201;SDS011;37799;52.390;6.136;2023-03-01T16:21:41;4.65;;;1.30;;
37201;SDS011;37799;52.390;6.136;2023-03-01T16:24:11;4.23;;;1.00;;
37201;SDS011;37799;52.390;6.136;2023-03-01T16:26:37;3.60;;;0.90;;
37201;SDS011;37799;52.390;6.136;2023-03-01T16:29:02;34.33;;;7.07;;
37201;SDS011;37799;52.390;6.136;2023-03-01T16:31:28;6.53;;;1.60;;
37201;SDS011;37799;52.390;6.136;2023-03-01T16:33:54;8.00;;;2.38;;
37201;SDS011;37799;52.390;6.136;2023-03-01T16:36:21;10.63;;;3.63;;
37201;SDS011;37799;52.390;6.136;2023-03-01T16:38:53;7.45;;;2.38;;
37201;SDS011;37799;52.390;6.136;2023-03-01T16:41:20;14.40;;;5.15;;
37201;SDS011;37799;52.390;6.136;2023-03-01T16:43:47;10.55;;;3.00;;
37201;SDS011;37799;52.390;6.136;2023-03-01T16:46:14;10.98;;;2.95;;
37201;SDS011;37799;52.390;6.136;2023-03-01T16:48:41;11.93;;;4.78;;
37201;SDS011;37799;52.390;6.136;2023-03-01T16:51:06;6.03;;;1.88;;